Flight Track Log - Related Links

Times and Time Zones

All times are in EDT time to prevent confusion due to time zone crossing. See the SWA279 flight status page for this flight to view local times or setup timezone preferences in your user account.

Time Position Orientation Groundspeed Altitude Reporting Facility
EDT Latitude Longitude Course Direction KTS MPH feet Rate Location/Type
Tue 09:41:26 PM 39.4000 -119.7500 166° South 244 281 9,400  Level Northern TRACON
Tue 09:43:52 PM 39.5314 -119.6889 20° North 297 342 15,700 2,754 Climbing Oakland Center
Tue 09:44:53 PM 39.6269 -119.7278 343° North 350 403 18,900 3,246 Climbing Oakland Center
Tue 09:45:54 PM 39.7161 -119.7958 330° Northwest 367 422 22,300 3,000 Climbing Oakland Center
Tue 09:46:55 PM 39.8108 -119.8536 335° Northwest 373 429 25,000 2,508 Climbing Oakland Center
Tue 09:47:56 PM 39.9092 -119.9147 335° Northwest 388 447 27,400 2,262 Climbing Oakland Center
Tue 09:48:57 PM 40.0092 -119.9764 335° Northwest 395 455 29,600 2,195 Climbing Oakland Center
Tue 09:49:59 PM 40.1108 -120.0411 334° Northwest 406 467 31,900 2,244 Climbing Oakland Center
Tue 09:51:00 PM 40.2114 -120.1033 335° Northwest 400 460 34,200 2,016 Climbing Oakland Center
Tue 09:52:01 PM 40.3089 -120.1658 334° Northwest 392 451 36,000 885 Climbing Oakland Center
Tue 09:53:02 PM 40.4058 -120.2261 335° Northwest 386 444 36,000  Level Oakland Center
Tue 09:54:03 PM 40.5022 -120.2886 334° Northwest 382 440 36,000  Level Oakland Center
Tue 09:55:04 PM 40.6003 -120.3517 334° Northwest 382 440 36,000  Level Oakland Center
Tue 09:55:47 PM 40.6786 -120.3967 336° Northwest 377 434 36,000  Level Seattle Center
Tue 09:56:05 PM 40.6953 -120.4119 325° Northwest 378 435 36,000  Level Oakland Center
Tue 09:57:06 PM 40.7900 -120.4733 334° Northwest 378 435 36,000  Level Oakland Center
Tue 09:58:07 PM 40.8850 -120.5317 335° Northwest 376 433 36,000  Level Oakland Center
Tue 09:58:49 PM 40.9619 -120.5803 334° Northwest 377 434 36,000  Level Seattle Center
Tue 09:59:50 PM 41.0572 -120.6419 334° Northwest 379 436 36,000 98 Level Seattle Center
Tue 10:00:51 PM 41.1519 -120.7039 334° Northwest 378 435 36,200 1,190 Climbing Seattle Center
Tue 10:01:51 PM 41.2467 -120.7642 334° Northwest 379 436 38,400 1,636 Climbing Seattle Center
Tue 10:02:52 PM 41.3350 -120.8231 333° Northwest 362 417 39,500 787 Climbing Seattle Center
Tue 10:03:53 PM 41.4264 -120.8844 333° Northwest 365 420 40,000 246 Climbing Seattle Center
Tue 10:04:54 PM 41.5217 -120.9458 334° Northwest 375 432 40,000  Level Seattle Center
Tue 10:05:55 PM 41.6144 -121.0064 334° Northwest 375 432 40,000  Level Seattle Center
Tue 10:06:55 PM 41.7069 -121.0675 334° Northwest 372 428 40,000  Level Seattle Center
Tue 10:07:56 PM 41.8167 -121.1408 334° Northwest 370 426 40,000  Level Seattle Center
Tue 10:08:57 PM 41.9078 -121.2019 333° Northwest 368 423 40,000  Level Seattle Center
Tue 10:09:58 PM 41.9975 -121.2617 334° Northwest 361 415 40,000  Level Seattle Center
Tue 10:10:59 PM 42.0892 -121.3217 334° Northwest 366 421 40,000  Level Seattle Center
Tue 10:11:59 PM 42.1808 -121.3847 333° Northwest 371 427 40,000  Level Seattle Center
Tue 10:13:00 PM 42.2742 -121.4458 334° Northwest 375 432 40,000  Level Seattle Center
Tue 10:14:01 PM 42.3633 -121.5056 334° Northwest 365 420 40,000  Level Seattle Center
Tue 10:15:02 PM 42.4536 -121.5667 333° Northwest 366 421 40,000  Level Seattle Center
Tue 10:16:03 PM 42.5439 -121.6286 333° Northwest 366 421 40,000  Level Seattle Center
Tue 10:17:04 PM 42.6344 -121.6900 333° Northwest 367 422 40,000  Level Seattle Center
Tue 10:18:05 PM 42.7256 -121.7522 333° Northwest 367 422 40,000  Level Seattle Center
Tue 10:19:06 PM 42.8153 -121.8128 334° Northwest 363 418 40,000  Level Seattle Center
Tue 10:20:06 PM 42.9231 -121.8864 333° Northwest 362 417 40,000  Level Seattle Center
Tue 10:21:07 PM 43.0125 -121.9483 333° Northwest 360 414 40,000  Level Seattle Center
Tue 10:22:08 PM 43.1022 -122.0114 333° Northwest 363 418 40,000  Level Seattle Center
Tue 10:23:09 PM 43.1933 -122.0750 333° Northwest 367 422 40,000  Level Seattle Center
Tue 10:24:10 PM 43.2853 -122.1386 333° Northwest 371 427 40,000  Level Seattle Center
Tue 10:25:11 PM 43.3886 -122.2058 335° Northwest 370 426 40,000  Level Seattle Center
Tue 10:26:12 PM 43.4797 -122.2711 333° Northwest 369 425 40,000  Level Seattle Center
Tue 10:27:13 PM 43.5717 -122.3367 333° Northwest 371 427 40,000 -197 Level Seattle Center
Tue 10:28:14 PM 43.6614 -122.4014 332° Northwest 366 421 39,600 -689 Descending Seattle Center
Tue 10:29:15 PM 43.7511 -122.4672 332° Northwest 363 418 38,600 -1,279 Descending Seattle Center
Tue 10:30:16 PM 43.8383 -122.5289 333° Northwest 357 411 37,000 -787 Descending Seattle Center
Tue 10:31:17 PM 43.9233 -122.5892 333° Northwest 346 398 37,000 -98 Level Seattle Center
Tue 10:32:18 PM 44.0089 -122.6500 333° Northwest 348 400 36,800 -1,574 Descending Seattle Center
Tue 10:33:19 PM 44.0939 -122.7122 332° Northwest 348 400 33,800 -2,754 Descending Seattle Center
Tue 10:34:20 PM 44.1858 -122.7483 344° North 353 406 31,200 -2,410 Descending Seattle Center
Tue 10:35:21 PM 44.2825 -122.7392 North 351 404 28,900 -3,393 Descending Seattle Center
Tue 10:36:22 PM 44.3864 -122.7297 North 345 397 24,300 -3,492 Descending Seattle Center
Tue 10:37:23 PM 44.4886 -122.7192 North 365 420 21,800 -1,770 Descending Seattle Center
Tue 10:38:24 PM 44.5794 -122.7100 North 337 388 20,700 -1,434 Descending Seattle Center
Tue 10:39:16 PM 44.6686 -122.7031 North 318 366 19,100 -1,895 Descending Seattle Center
Tue 10:39:40 PM 44.7003 -122.6994 North 311 358 18,300 -1,629 Descending Seattle Center
Tue 10:40:26 PM 44.7533 -122.6933 North 314 361 17,200 -1,967 Descending Seattle Center
Tue 10:40:41 PM 44.7856 -122.6925 North 297 342 16,300 -2,066 Descending Seattle Center
Tue 10:41:27 PM 44.8342 -122.6856 North 300 345 15,100 -1,967 Descending Seattle Center
Tue 10:41:42 PM 44.8656 -122.6817 North 295 339 14,300 -2,361 Descending Seattle Center
Tue 10:42:28 PM 44.9303 -122.6750 North 292 336 12,700 -1,358 Descending Seattle Center
Tue 10:43:28 PM 45.0075 -122.6678 North 284 327 11,900 -560 Descending Seattle Center
Tue 10:43:43 PM 45.0317 -122.6667 North 285 328 12,000 -689 Climbing Seattle Center
Tue 10:44:29 PM 45.0892 -122.6592 North 291 335 11,200 -1,346 Descending Seattle Center
Tue 10:45:30 PM 45.1700 -122.6503 North 293 337 9,600 -1,180 Descending Seattle Center
Tue 10:46:31 PM 45.2425 -122.6453 North 271 312 8,800 -1,108 Descending Seattle Center
Tue 10:47:40 PM 45.3206 -122.6386 North 235 270 7,200 -1,180 Descending Seattle Center
Tue 10:48:33 PM 45.3731 -122.6294 North 239 275 6,400 -684 Descending Seattle Center
Tue 10:49:34 PM 45.4392 -122.6236 North 239 275 5,900 -787 Descending Seattle Center
Tue 10:50:35 PM 45.4517 -122.5475 77° East 233 268 4,800 -1,140 Descending Seattle Center
Tue 10:51:35 PM 45.4353 -122.4603 105° East 238 274 3,600 -1,140 Descending Seattle Center
Tue 10:52:36 PM 45.4881 -122.4247 25° Northeast 221 254 2,500 -787 Descending Seattle Center
Tue 10:53:37 PM 45.5358 -122.4367 350° North 210 242 2,000 -590 Descending Seattle Center
Tue 10:54:38 PM 45.5506 -122.4842 294° West 157 181 1,300 -716 Descending Seattle Center
Tue 10:55:51 PM 45.5744 -122.5442 300° West 122 140 400 -740 Descending Seattle Center

Login

Don't have an account? Register now (free) for customized features, flight alerts, and more!